Saint Clair, Minnesota
Current Conditions -  °F | °C
As of 4:15 PM on Thursday 27 Nov 2014 (Local Time) from KMKT Reporting Station
Clear Clear  
Wind Chill: -12°   Ceiling: Unl
Heat Index:   Visibility: 10mi
Dew Point: -11°   Wind: 6mph
Humidity: 60%   Direction: 170°S
Pressure: 30.4"   Gusts: NA
Location:  44.08°N, 93.86°W
Report Text: KMKT 272215Z AUTO 17005KT 10SM CLR M18/M24 A3040 RMK AO1
Loading
Personal Weather Stations






























Interactive Weather Map New forecast layout! Learn more

10-Day Weather Forecast

Advertisements
Track Severe Weather on mobile